Warning: Javascript must be enabled to use all the features on this page!


Page Loading - Please Wait...

Click to hideNews Bulletins

Peak Streamflow for the Nation

USGS 07064000 Black River near Corning, AR

Clay County, Arkansas
Hydrologic Unit Code 11010007
Latitude  36°24'07", Longitude  90°32'29" NAD83
Drainage area 1,750  square miles
Gage datum 271.34 feet above NAVD88
Output formats
Table
Graph
Tab-separated file
peakfq (watstore) format
Reselect output format
Water
Year
Date Gage
Height
(feet)
Stream-
flow
(cfs)
1915 1915 13.30Bm 18,900Bm
1916 1916 13.90Bm 23,400Bm
1919 1918-12-22 11.80 8,330
1920 1919-12-06 11.70 7,750
1921 1921-05-01 12.40 12,300
1922 1922-04-05 12.50 13,000
1923 1923-05-21 12.50 13,000
1924 1924-06-04 10.80 4,430
1925 1925-06-17 9.60 3,100
1926 1925-11-10 11.50 6,710
1927 1927-04-18 14.40 27,200
1928 1928-06-18 13.10 17,400
1929 1929-05-19 12.70 14,400
1930 1930-01-20 13.00 16,600
1931 1931-03-10 11.20 5,480
1932 1932-01-20 11.80 8,330
1933 1933-05-19 13.80 22,600
1934 1934-03-30 11.10 5,160
1935 1935-03-15 14.20 25,600
1936 1936-04-09 11.10 5,160
1937 1937-01-19 14.10 24,900
1938 1938-02-23 13.60 21,200
1939 1939-04-22 13.15 18,000
1940 1940-04-22 11.62 6,900
1941 1941-01-07 9.00 2,800
1942 1942-04-12 12.09 9,900
1943 1943-05-15   33,3001
1944 1944-04-14 11.88 8,620
1945 1945-06-13 16.92 48,600
1946 1946-05-30 13.08 17,400
1947 1947-05-01 12.03 10,500
1948 1948-01-08 12.19 11,2005
1949 1949-01-29 13.78 22,8006
1950 1950-01-08 13.15 18,6006
1951 1951-02-24 12.02 10,2006
1952 1951-11-28 12.27 12,0006
1953 1953-03-20 11.07 5,3406
1954 1954-03-28 8.76 2,6306
1955 1955-03-25 13.89 17,5006
1956 1956-02-21 11.60 7,2106
1957 1957-04-08 13.54 18,7006
1958 1958-03-28 13.03 15,0006
1959 1959-01-24 10.67 4,0606
1960 1960-05-23 11.47 6,1506
1961 1961-05-11 13.73 19,9006
1962 1962-03-01 12.92 14,0006
1963 1963-05-30 11.22 5,2206
1964 1964-03-13 15.23 32,5006
1965 1965-02-14 12.22 8,5506
1966 1966-01-05 13.54 17,3006
1967 1967-05-17 12.27 8,9406
1968 1968-03-23 12.78 11,9006
1969 1969-02-02 14.10 22,1006
1970 1970-04-27 13.02 13,7006
1971 1971-01-17 11.80 6,5506
1972 1972-04-24 12.27 8,9406
1973 1973-04-24 14.00 22,6006
1974 1973-11-28 14.09 22,0006
1975 1975-03-31 14.70 28,2006
1976 1975-12-09 11.74 6,3106
1977 1977-03-31 15.53 28,0006
1978 1978-03-16 12.16 8,3306
1979 1979-04-03 13.73 19,5006
1980 1980-04-01 10.88 4,1506
1981 1981-06-10 10.72 3,9306
1982 1982-02-03 13.94 22,7006
1983 1982-12-07 14.82 23,4006
1984 1984-04-05 11.96 7,3006
1985 1984-12-24 13.89 17,5006
1986 1986-05-18 12.12 8,1106
1987 1987-03-03 10.99 3,6306
1988 1987-12-28 13.05 11,5006
1989 1989-02-17 14.01 17,5006
1990 1990-02-17 12.78 10,2006
1991 1991-04-17 13.34 13,3006
1992 1991-11-23 12.49 9,0706
1993 1993-01-07 12.84 11,3006
1994 1994-01-30 13.43 13,9006
1995 1994-11-08 13.38 13,3006
1996 1996-05-09 12.20 7,7606
1997 1997-03-04 12.79 11,2006
1998 1998-03-21 12.47 9,6806
1999 1999-01-25 13.08 12,8006
2000 2000-01-06 11.55 6,6506
2001 2001-02-28 11.45 6,3606
2002 2001-12-20 13.32 14,2006
2003 2003-01-03 12.67 10,8006
2004 2004-04-27 11.72 7,1206
2005 2005-01-15 11.99 8,1006
2006 2006-03-13 13.01 12,5006
2007 2007-01-17 13.07 12,8006
2008 2008-03-22 15.92 27,1006
2009 2009-05-04 12.37 9,1406
2010 2009-11-03 13.79 14,5006
2011 2011-04-28 18.12 40,7006
2012 2011-12-08 12.58 8,9506
2013 2013-01-16 12.61 9,0406
2014 2013-12-25 14.22 14,8006
2015 2015-03-16 13.48 14,6006
2016 2015-12-31 14.72 19,2006
2017 2017-05-04 15.89 24,5006
2018 2018-02-27 13.30 14,0006
2019 2019-02-13 12.99 13,0006
2020 2020-01-14 13.27 14,0006
?
  Peak Gage-Height Qualification Codes.
?
  Peak Streamflow Qualification Codes.